sensor_id;sensor_type;location;lat;lon;timestamp;P1;durP1;ratioP1;P2;durP2;ratioP2
51981;SDS011;37998;53.416;6.730;2022-08-21T00:00:42;11.93;;;5.82;;
51981;SDS011;37998;53.416;6.730;2022-08-21T00:03:09;9.88;;;6.32;;
51981;SDS011;37998;53.416;6.730;2022-08-21T00:05:37;11.60;;;6.18;;
51981;SDS011;37998;53.416;6.730;2022-08-21T00:08:05;9.90;;;5.70;;
51981;SDS011;37998;53.416;6.730;2022-08-21T00:10:32;8.93;;;5.50;;
51981;SDS011;37998;53.416;6.730;2022-08-21T00:12:59;13.43;;;5.32;;
51981;SDS011;37998;53.416;6.730;2022-08-21T00:15:28;8.10;;;4.85;;
51981;SDS011;37998;53.416;6.730;2022-08-21T00:17:55;9.38;;;5.15;;
51981;SDS011;37998;53.416;6.730;2022-08-21T00:20:21;11.70;;;6.55;;
51981;SDS011;37998;53.416;6.730;2022-08-21T00:22:47;13.65;;;6.55;;
51981;SDS011;37998;53.416;6.730;2022-08-21T00:25:14;9.50;;;5.63;;
51981;SDS011;37998;53.416;6.730;2022-08-21T00:27:40;12.98;;;6.32;;
51981;SDS011;37998;53.416;6.730;2022-08-21T00:30:08;10.55;;;5.78;;
51981;SDS011;37998;53.416;6.730;2022-08-21T00:32:36;12.52;;;5.45;;
51981;SDS011;37998;53.416;6.730;2022-08-21T00:35:04;9.05;;;5.32;;
51981;SDS011;37998;53.416;6.730;2022-08-21T00:37:31;9.93;;;5.47;;
51981;SDS011;37998;53.416;6.730;2022-08-21T00:39:56;9.07;;;5.22;;
51981;SDS011;37998;53.416;6.730;2022-08-21T00:42:22;9.25;;;5.82;;
51981;SDS011;37998;53.416;6.730;2022-08-21T00:44:48;10.45;;;5.90;;
51981;SDS011;37998;53.416;6.730;2022-08-21T00:47:15;12.88;;;5.85;;
51981;SDS011;37998;53.416;6.730;2022-08-21T00:49:42;11.23;;;5.57;;
51981;SDS011;37998;53.416;6.730;2022-08-21T00:52:13;6.32;;;5.18;;
51981;SDS011;37998;53.416;6.730;2022-08-21T00:54:43;8.90;;;5.65;;
51981;SDS011;37998;53.416;6.730;2022-08-21T00:57:13;9.68;;;5.18;;
51981;SDS011;37998;53.416;6.730;2022-08-21T00:59:43;8.48;;;5.43;;
51981;SDS011;37998;53.416;6.730;2022-08-21T01:02:11;9.77;;;6.18;;
51981;SDS011;37998;53.416;6.730;2022-08-21T01:04:37;9.95;;;5.45;;
51981;SDS011;37998;53.416;6.730;2022-08-21T01:07:03;13.35;;;5.65;;
51981;SDS011;37998;53.416;6.730;2022-08-21T01:09:29;11.90;;;5.60;;
51981;SDS011;37998;53.416;6.730;2022-08-21T01:11:55;9.68;;;5.22;;
51981;SDS011;37998;53.416;6.730;2022-08-21T01:14:20;7.90;;;5.10;;
51981;SDS011;37998;53.416;6.730;2022-08-21T01:16:48;9.10;;;5.20;;
51981;SDS011;37998;53.416;6.730;2022-08-21T01:19:16;10.05;;;5.32;;
51981;SDS011;37998;53.416;6.730;2022-08-21T01:21:43;9.25;;;5.60;;
51981;SDS011;37998;53.416;6.730;2022-08-21T01:24:10;7.10;;;5.45;;
51981;SDS011;37998;53.416;6.730;2022-08-21T01:26:36;9.55;;;5.13;;
51981;SDS011;37998;53.416;6.730;2022-08-21T01:31:45;10.05;;;5.05;;
51981;SDS011;37998;53.416;6.730;2022-08-21T01:34:11;8.90;;;5.03;;
51981;SDS011;37998;53.416;6.730;2022-08-21T01:36:36;8.30;;;4.68;;
51981;SDS011;37998;53.416;6.730;2022-08-21T01:39:03;10.25;;;5.07;;
51981;SDS011;37998;53.416;6.730;2022-08-21T01:41:29;19.35;;;6.32;;
51981;SDS011;37998;53.416;6.730;2022-08-21T01:43:55;6.57;;;4.95;;
51981;SDS011;37998;53.416;6.730;2022-08-21T01:46:21;9.25;;;4.47;;
51981;SDS011;37998;53.416;6.730;2022-08-21T01:48:47;12.35;;;4.85;;
51981;SDS011;37998;53.416;6.730;2022-08-21T01:51:13;8.05;;;4.47;;
51981;SDS011;37998;53.416;6.730;2022-08-21T01:53:38;7.72;;;4.53;;
51981;SDS011;37998;53.416;6.730;2022-08-21T01:56:05;7.78;;;4.25;;
51981;SDS011;37998;53.416;6.730;2022-08-21T01:58:35;7.03;;;4.57;;
51981;SDS011;37998;53.416;6.730;2022-08-21T02:01:02;6.63;;;4.22;;
51981;SDS011;37998;53.416;6.730;2022-08-21T02:03:29;7.32;;;4.22;;
51981;SDS011;37998;53.416;6.730;2022-08-21T02:05:55;8.75;;;4.47;;
51981;SDS011;37998;53.416;6.730;2022-08-21T02:08:21;10.95;;;4.63;;
51981;SDS011;37998;53.416;6.730;2022-08-21T02:10:50;9.98;;;4.82;;
51981;SDS011;37998;53.416;6.730;2022-08-21T02:13:17;8.75;;;4.47;;
51981;SDS011;37998;53.416;6.730;2022-08-21T02:15:43;9.60;;;4.32;;
51981;SDS011;37998;53.416;6.730;2022-08-21T02:18:09;9.65;;;4.70;;
51981;SDS011;37998;53.416;6.730;2022-08-21T02:20:36;8.32;;;4.75;;
51981;SDS011;37998;53.416;6.730;2022-08-21T02:23:05;9.13;;;4.68;;
51981;SDS011;37998;53.416;6.730;2022-08-21T02:25:32;9.05;;;4.32;;
51981;SDS011;37998;53.416;6.730;2022-08-21T02:27:59;7.50;;;4.20;;
51981;SDS011;37998;53.416;6.730;2022-08-21T02:30:31;7.28;;;4.40;;
51981;SDS011;37998;53.416;6.730;2022-08-21T02:33:05;9.45;;;5.00;;
51981;SDS011;37998;53.416;6.730;2022-08-21T02:35:31;11.57;;;4.80;;
51981;SDS011;37998;53.416;6.730;2022-08-21T02:37:58;6.97;;;4.20;;
51981;SDS011;37998;53.416;6.730;2022-08-21T02:40:31;10.73;;;4.15;;
51981;SDS011;37998;53.416;6.730;2022-08-21T02:42:59;8.48;;;4.22;;
51981;SDS011;37998;53.416;6.730;2022-08-21T02:45:26;8.02;;;4.70;;
51981;SDS011;37998;53.416;6.730;2022-08-21T02:47:58;10.05;;;4.40;;
51981;SDS011;37998;53.416;6.730;2022-08-21T02:50:28;11.10;;;4.47;;
51981;SDS011;37998;53.416;6.730;2022-08-21T02:52:56;9.10;;;4.47;;
51981;SDS011;37998;53.416;6.730;2022-08-21T02:55:23;8.80;;;4.57;;
51981;SDS011;37998;53.416;6.730;2022-08-21T02:57:51;9.07;;;4.90;;
51981;SDS011;37998;53.416;6.730;2022-08-21T03:00:18;11.25;;;5.95;;
51981;SDS011;37998;53.416;6.730;2022-08-21T03:02:45;10.93;;;4.47;;
51981;SDS011;37998;53.416;6.730;2022-08-21T03:05:12;10.43;;;4.72;;
51981;SDS011;37998;53.416;6.730;2022-08-21T03:07:39;8.95;;;5.35;;
51981;SDS011;37998;53.416;6.730;2022-08-21T03:10:05;11.02;;;4.88;;
51981;SDS011;37998;53.416;6.730;2022-08-21T03:12:31;13.18;;;5.13;;
51981;SDS011;37998;53.416;6.730;2022-08-21T03:14:57;9.85;;;5.38;;
51981;SDS011;37998;53.416;6.730;2022-08-21T03:17:23;9.75;;;5.05;;
51981;SDS011;37998;53.416;6.730;2022-08-21T03:19:50;10.75;;;4.93;;
51981;SDS011;37998;53.416;6.730;2022-08-21T03:22:15;7.50;;;4.55;;
51981;SDS011;37998;53.416;6.730;2022-08-21T03:24:42;10.88;;;5.32;;
51981;SDS011;37998;53.416;6.730;2022-08-21T03:27:08;10.43;;;4.82;;
51981;SDS011;37998;53.416;6.730;2022-08-21T03:29:33;11.35;;;4.97;;
51981;SDS011;37998;53.416;6.730;2022-08-21T03:31:59;9.70;;;5.00;;
51981;SDS011;37998;53.416;6.730;2022-08-21T03:34:24;10.48;;;5.10;;
51981;SDS011;37998;53.416;6.730;2022-08-21T03:36:50;9.38;;;4.95;;
51981;SDS011;37998;53.416;6.730;2022-08-21T03:39:16;12.77;;;5.30;;
51981;SDS011;37998;53.416;6.730;2022-08-21T03:41:42;9.68;;;5.03;;
51981;SDS011;37998;53.416;6.730;2022-08-21T03:44:08;12.63;;;5.43;;
51981;SDS011;37998;53.416;6.730;2022-08-21T03:46:33;8.52;;;5.15;;
51981;SDS011;37998;53.416;6.730;2022-08-21T03:48:59;8.38;;;5.25;;
51981;SDS011;37998;53.416;6.730;2022-08-21T03:51:25;11.10;;;5.75;;
51981;SDS011;37998;53.416;6.730;2022-08-21T03:53:51;10.43;;;5.25;;
51981;SDS011;37998;53.416;6.730;2022-08-21T03:56:17;10.38;;;5.20;;
51981;SDS011;37998;53.416;6.730;2022-08-21T03:58:42;8.82;;;5.45;;
51981;SDS011;37998;53.416;6.730;2022-08-21T04:01:09;8.95;;;5.20;;
51981;SDS011;37998;53.416;6.730;2022-08-21T04:03:35;11.40;;;5.85;;
51981;SDS011;37998;53.416;6.730;2022-08-21T04:06:02;13.02;;;5.97;;
51981;SDS011;37998;53.416;6.730;2022-08-21T04:08:28;13.85;;;5.50;;
51981;SDS011;37998;53.416;6.730;2022-08-21T04:10:55;10.50;;;6.40;;
51981;SDS011;37998;53.416;6.730;2022-08-21T04:13:23;10.30;;;5.53;;
51981;SDS011;37998;53.416;6.730;2022-08-21T04:15:49;12.95;;;5.97;;
51981;SDS011;37998;53.416;6.730;2022-08-21T04:18:15;9.82;;;6.32;;
51981;SDS011;37998;53.416;6.730;2022-08-21T04:20:41;14.05;;;6.70;;
51981;SDS011;37998;53.416;6.730;2022-08-21T04:23:09;9.63;;;6.03;;
51981;SDS011;37998;53.416;6.730;2022-08-21T04:25:35;11.90;;;5.55;;
51981;SDS011;37998;53.416;6.730;2022-08-21T04:28:01;11.15;;;6.53;;
51981;SDS011;37998;53.416;6.730;2022-08-21T04:30:27;11.65;;;6.15;;
51981;SDS011;37998;53.416;6.730;2022-08-21T04:32:52;8.88;;;6.10;;
51981;SDS011;37998;53.416;6.730;2022-08-21T04:35:19;12.60;;;6.38;;
51981;SDS011;37998;53.416;6.730;2022-08-21T04:37:46;9.93;;;6.47;;
51981;SDS011;37998;53.416;6.730;2022-08-21T04:40:14;11.90;;;6.40;;
51981;SDS011;37998;53.416;6.730;2022-08-21T04:42:42;9.55;;;5.97;;
51981;SDS011;37998;53.416;6.730;2022-08-21T04:45:15;12.15;;;6.45;;
51981;SDS011;37998;53.416;6.730;2022-08-21T04:47:42;13.10;;;6.07;;
51981;SDS011;37998;53.416;6.730;2022-08-21T04:50:08;17.98;;;7.03;;
51981;SDS011;37998;53.416;6.730;2022-08-21T04:52:34;11.23;;;6.32;;
51981;SDS011;37998;53.416;6.730;2022-08-21T04:55:00;11.63;;;6.55;;
51981;SDS011;37998;53.416;6.730;2022-08-21T04:57:26;12.75;;;6.90;;
51981;SDS011;37998;53.416;6.730;2022-08-21T04:59:52;11.23;;;6.63;;
51981;SDS011;37998;53.416;6.730;2022-08-21T05:02:18;12.52;;;5.80;;
51981;SDS011;37998;53.416;6.730;2022-08-21T05:04:48;14.13;;;6.82;;
51981;SDS011;37998;53.416;6.730;2022-08-21T05:07:22;11.15;;;6.38;;
51981;SDS011;37998;53.416;6.730;2022-08-21T05:09:52;12.10;;;6.40;;
51981;SDS011;37998;53.416;6.730;2022-08-21T05:12:19;10.13;;;6.40;;
51981;SDS011;37998;53.416;6.730;2022-08-21T05:14:45;13.40;;;6.70;;
51981;SDS011;37998;53.416;6.730;2022-08-21T05:17:12;11.30;;;6.28;;
51981;SDS011;37998;53.416;6.730;2022-08-21T05:19:38;9.07;;;6.25;;
51981;SDS011;37998;53.416;6.730;2022-08-21T05:22:04;8.40;;;6.03;;
51981;SDS011;37998;53.416;6.730;2022-08-21T05:24:30;12.40;;;6.05;;
51981;SDS011;37998;53.416;6.730;2022-08-21T05:26:57;8.35;;;6.22;;
51981;SDS011;37998;53.416;6.730;2022-08-21T05:29:22;11.30;;;6.82;;
51981;SDS011;37998;53.416;6.730;2022-08-21T05:31:48;10.80;;;6.18;;
51981;SDS011;37998;53.416;6.730;2022-08-21T05:34:17;12.85;;;6.82;;
51981;SDS011;37998;53.416;6.730;2022-08-21T05:36:44;8.55;;;6.07;;
51981;SDS011;37998;53.416;6.730;2022-08-21T05:39:10;13.32;;;6.00;;
51981;SDS011;37998;53.416;6.730;2022-08-21T05:41:36;11.82;;;6.32;;
51981;SDS011;37998;53.416;6.730;2022-08-21T05:44:01;10.98;;;6.68;;
51981;SDS011;37998;53.416;6.730;2022-08-21T05:46:27;10.18;;;7.05;;
51981;SDS011;37998;53.416;6.730;2022-08-21T05:48:53;12.25;;;6.25;;
51981;SDS011;37998;53.416;6.730;2022-08-21T05:51:18;11.98;;;6.25;;
51981;SDS011;37998;53.416;6.730;2022-08-21T05:53:44;11.25;;;6.30;;
51981;SDS011;37998;53.416;6.730;2022-08-21T05:56:10;12.07;;;6.45;;
51981;SDS011;37998;53.416;6.730;2022-08-21T05:58:37;7.80;;;6.22;;
51981;SDS011;37998;53.416;6.730;2022-08-21T06:01:03;11.07;;;5.88;;
51981;SDS011;37998;53.416;6.730;2022-08-21T06:03:31;10.15;;;6.57;;
51981;SDS011;37998;53.416;6.730;2022-08-21T06:05:59;11.70;;;5.93;;
51981;SDS011;37998;53.416;6.730;2022-08-21T06:08:26;13.43;;;6.22;;
51981;SDS011;37998;53.416;6.730;2022-08-21T06:10:53;9.20;;;5.38;;
51981;SDS011;37998;53.416;6.730;2022-08-21T06:13:20;13.02;;;6.15;;
51981;SDS011;37998;53.416;6.730;2022-08-21T06:15:47;11.02;;;5.95;;
51981;SDS011;37998;53.416;6.730;2022-08-21T06:18:13;14.68;;;7.00;;
51981;SDS011;37998;53.416;6.730;2022-08-21T06:20:39;9.57;;;6.00;;
51981;SDS011;37998;53.416;6.730;2022-08-21T06:23:05;11.55;;;5.35;;
51981;SDS011;37998;53.416;6.730;2022-08-21T06:25:31;8.75;;;5.47;;
51981;SDS011;37998;53.416;6.730;2022-08-21T06:28:00;10.95;;;5.75;;
51981;SDS011;37998;53.416;6.730;2022-08-21T06:30:30;12.23;;;5.95;;
51981;SDS011;37998;53.416;6.730;2022-08-21T06:32:56;12.57;;;6.30;;
51981;SDS011;37998;53.416;6.730;2022-08-21T06:35:22;8.75;;;5.22;;
51981;SDS011;37998;53.416;6.730;2022-08-21T06:37:49;18.05;;;6.35;;
51981;SDS011;37998;53.416;6.730;2022-08-21T06:40:15;13.70;;;5.57;;
51981;SDS011;37998;53.416;6.730;2022-08-21T06:42:41;14.32;;;5.80;;
51981;SDS011;37998;53.416;6.730;2022-08-21T06:45:07;12.23;;;6.35;;
51981;SDS011;37998;53.416;6.730;2022-08-21T06:47:33;10.30;;;5.70;;
51981;SDS011;37998;53.416;6.730;2022-08-21T06:49:59;14.18;;;5.97;;
51981;SDS011;37998;53.416;6.730;2022-08-21T06:52:24;13.68;;;6.28;;
51981;SDS011;37998;53.416;6.730;2022-08-21T06:54:50;10.80;;;5.75;;
51981;SDS011;37998;53.416;6.730;2022-08-21T06:57:16;9.93;;;5.50;;
51981;SDS011;37998;53.416;6.730;2022-08-21T06:59:42;12.63;;;6.25;;
51981;SDS011;37998;53.416;6.730;2022-08-21T07:02:07;11.82;;;5.65;;
51981;SDS011;37998;53.416;6.730;2022-08-21T07:04:33;10.98;;;5.72;;
51981;SDS011;37998;53.416;6.730;2022-08-21T07:06:58;11.57;;;6.10;;
51981;SDS011;37998;53.416;6.730;2022-08-21T07:09:24;12.27;;;5.35;;
51981;SDS011;37998;53.416;6.730;2022-08-21T07:11:51;9.57;;;5.15;;
51981;SDS011;37998;53.416;6.730;2022-08-21T07:14:19;12.10;;;4.85;;
51981;SDS011;37998;53.416;6.730;2022-08-21T07:16:45;16.33;;;6.13;;
51981;SDS011;37998;53.416;6.730;2022-08-21T07:19:11;17.10;;;5.38;;
51981;SDS011;37998;53.416;6.730;2022-08-21T07:21:37;16.77;;;5.25;;
51981;SDS011;37998;53.416;6.730;2022-08-21T07:24:03;13.43;;;5.43;;
51981;SDS011;37998;53.416;6.730;2022-08-21T07:26:29;13.48;;;5.13;;
51981;SDS011;37998;53.416;6.730;2022-08-21T07:28:54;20.52;;;5.80;;
51981;SDS011;37998;53.416;6.730;2022-08-21T07:31:21;15.77;;;5.13;;
51981;SDS011;37998;53.416;6.730;2022-08-21T07:33:48;13.68;;;4.88;;
51981;SDS011;37998;53.416;6.730;2022-08-21T07:36:14;15.88;;;4.68;;
51981;SDS011;37998;53.416;6.730;2022-08-21T07:38:40;9.60;;;5.20;;
51981;SDS011;37998;53.416;6.730;2022-08-21T07:41:10;14.13;;;4.63;;
51981;SDS011;37998;53.416;6.730;2022-08-21T07:43:40;12.10;;;4.68;;
51981;SDS011;37998;53.416;6.730;2022-08-21T07:46:06;8.68;;;4.00;;
51981;SDS011;37998;53.416;6.730;2022-08-21T07:48:32;10.00;;;3.72;;
51981;SDS011;37998;53.416;6.730;2022-08-21T07:50:58;10.10;;;4.00;;
51981;SDS011;37998;53.416;6.730;2022-08-21T07:53:35;9.20;;;3.50;;
51981;SDS011;37998;53.416;6.730;2022-08-21T07:56:02;10.45;;;3.33;;
51981;SDS011;37998;53.416;6.730;2022-08-21T07:58:28;14.02;;;3.80;;
51981;SDS011;37998;53.416;6.730;2022-08-21T08:00:54;12.52;;;3.85;;
51981;SDS011;37998;53.416;6.730;2022-08-21T08:03:20;12.77;;;4.43;;
51981;SDS011;37998;53.416;6.730;2022-08-21T08:05:45;11.75;;;4.47;;
51981;SDS011;37998;53.416;6.730;2022-08-21T08:08:11;12.43;;;3.65;;
51981;SDS011;37998;53.416;6.730;2022-08-21T08:10:37;8.68;;;3.20;;
51981;SDS011;37998;53.416;6.730;2022-08-21T08:13:04;13.35;;;3.63;;
51981;SDS011;37998;53.416;6.730;2022-08-21T08:15:30;8.80;;;3.30;;
51981;SDS011;37998;53.416;6.730;2022-08-21T08:17:56;11.38;;;3.47;;
51981;SDS011;37998;53.416;6.730;2022-08-21T08:20:22;7.68;;;3.60;;
51981;SDS011;37998;53.416;6.730;2022-08-21T08:22:50;11.30;;;3.97;;
51981;SDS011;37998;53.416;6.730;2022-08-21T08:25:16;11.40;;;3.92;;
51981;SDS011;37998;53.416;6.730;2022-08-21T08:27:43;9.98;;;3.33;;
51981;SDS011;37998;53.416;6.730;2022-08-21T08:30:09;10.40;;;3.33;;
51981;SDS011;37998;53.416;6.730;2022-08-21T08:32:38;7.82;;;3.10;;
51981;SDS011;37998;53.416;6.730;2022-08-21T08:35:04;11.35;;;4.05;;
51981;SDS011;37998;53.416;6.730;2022-08-21T08:37:32;11.52;;;3.63;;
51981;SDS011;37998;53.416;6.730;2022-08-21T08:39:58;8.32;;;3.38;;
51981;SDS011;37998;53.416;6.730;2022-08-21T08:42:29;13.32;;;3.75;;
51981;SDS011;37998;53.416;6.730;2022-08-21T08:47:47;11.23;;;3.95;;
51981;SDS011;37998;53.416;6.730;2022-08-21T08:50:27;9.85;;;2.90;;
51981;SDS011;37998;53.416;6.730;2022-08-21T08:53:06;12.25;;;3.83;;
51981;SDS011;37998;53.416;6.730;2022-08-21T08:55:43;12.23;;;3.33;;
51981;SDS011;37998;53.416;6.730;2022-08-21T08:58:12;9.48;;;3.45;;
51981;SDS011;37998;53.416;6.730;2022-08-21T09:00:48;9.07;;;3.95;;
51981;SDS011;37998;53.416;6.730;2022-08-21T09:03:16;15.45;;;4.20;;
51981;SDS011;37998;53.416;6.730;2022-08-21T09:05:46;12.15;;;4.25;;
51981;SDS011;37998;53.416;6.730;2022-08-21T09:08:32;15.80;;;3.10;;
51981;SDS011;37998;53.416;6.730;2022-08-21T09:11:27;16.55;;;4.20;;
51981;SDS011;37998;53.416;6.730;2022-08-21T09:17:13;8.90;;;2.83;;
51981;SDS011;37998;53.416;6.730;2022-08-21T09:20:16;10.50;;;3.58;;
51981;SDS011;37998;53.416;6.730;2022-08-21T09:28:16;11.43;;;3.70;;
51981;SDS011;37998;53.416;6.730;2022-08-21T09:30:41;9.73;;;3.55;;
51981;SDS011;37998;53.416;6.730;2022-08-21T09:33:09;12.70;;;3.78;;
51981;SDS011;37998;53.416;6.730;2022-08-21T09:35:36;15.77;;;4.03;;
51981;SDS011;37998;53.416;6.730;2022-08-21T09:38:51;10.80;;;3.83;;
51981;SDS011;37998;53.416;6.730;2022-08-21T09:41:16;11.10;;;3.17;;
51981;SDS011;37998;53.416;6.730;2022-08-21T09:43:56;11.98;;;3.90;;
51981;SDS011;37998;53.416;6.730;2022-08-21T09:46:26;10.63;;;3.05;;
51981;SDS011;37998;53.416;6.730;2022-08-21T09:48:53;12.65;;;3.08;;
51981;SDS011;37998;53.416;6.730;2022-08-21T09:51:32;10.38;;;2.88;;
51981;SDS011;37998;53.416;6.730;2022-08-21T09:56:51;11.32;;;2.80;;
51981;SDS011;37998;53.416;6.730;2022-08-21T09:59:39;12.93;;;3.28;;
51981;SDS011;37998;53.416;6.730;2022-08-21T10:04:50;12.50;;;3.00;;
51981;SDS011;37998;53.416;6.730;2022-08-21T10:07:20;14.13;;;3.40;;
51981;SDS011;37998;53.416;6.730;2022-08-21T10:12:47;8.63;;;2.80;;
51981;SDS011;37998;53.416;6.730;2022-08-21T10:18:37;10.65;;;2.75;;
51981;SDS011;37998;53.416;6.730;2022-08-21T10:26:49;7.00;;;2.50;;
51981;SDS011;37998;53.416;6.730;2022-08-21T10:29:24;10.10;;;2.80;;
51981;SDS011;37998;53.416;6.730;2022-08-21T10:35:17;7.93;;;2.95;;
51981;SDS011;37998;53.416;6.730;2022-08-21T10:43:02;7.70;;;2.70;;
51981;SDS011;37998;53.416;6.730;2022-08-21T10:48:00;9.23;;;2.90;;
51981;SDS011;37998;53.416;6.730;2022-08-21T10:50:41;9.18;;;2.78;;
51981;SDS011;37998;53.416;6.730;2022-08-21T10:53:36;9.70;;;2.92;;
51981;SDS011;37998;53.416;6.730;2022-08-21T10:58:37;8.88;;;2.70;;
51981;SDS011;37998;53.416;6.730;2022-08-21T11:01:12;7.25;;;2.20;;
51981;SDS011;37998;53.416;6.730;2022-08-21T11:03:44;9.65;;;3.00;;
51981;SDS011;37998;53.416;6.730;2022-08-21T11:08:51;7.28;;;2.50;;
51981;SDS011;37998;53.416;6.730;2022-08-21T11:11:25;6.97;;;2.60;;
51981;SDS011;37998;53.416;6.730;2022-08-21T11:14:25;7.40;;;2.47;;
51981;SDS011;37998;53.416;6.730;2022-08-21T11:17:01;11.30;;;2.92;;
51981;SDS011;37998;53.416;6.730;2022-08-21T11:20:19;5.70;;;2.75;;
51981;SDS011;37998;53.416;6.730;2022-08-21T11:22:54;6.88;;;2.35;;
51981;SDS011;37998;53.416;6.730;2022-08-21T11:25:27;5.88;;;2.83;;
51981;SDS011;37998;53.416;6.730;2022-08-21T11:28:43;7.10;;;3.00;;
51981;SDS011;37998;53.416;6.730;2022-08-21T11:31:11;10.55;;;2.88;;
51981;SDS011;37998;53.416;6.730;2022-08-21T11:34:24;8.77;;;2.57;;
51981;SDS011;37998;53.416;6.730;2022-08-21T11:37:18;9.05;;;2.65;;
51981;SDS011;37998;53.416;6.730;2022-08-21T11:40:02;8.90;;;2.50;;
51981;SDS011;37998;53.416;6.730;2022-08-21T11:42:50;10.05;;;3.10;;
51981;SDS011;37998;53.416;6.730;2022-08-21T11:45:39;7.63;;;2.88;;
51981;SDS011;37998;53.416;6.730;2022-08-21T11:51:07;6.22;;;2.42;;
51981;SDS011;37998;53.416;6.730;2022-08-21T11:56:17;11.35;;;2.35;;
51981;SDS011;37998;53.416;6.730;2022-08-21T11:58:56;7.20;;;2.58;;
51981;SDS011;37998;53.416;6.730;2022-08-21T12:01:28;6.28;;;2.08;;
51981;SDS011;37998;53.416;6.730;2022-08-21T12:04:00;5.30;;;1.90;;
51981;SDS011;37998;53.416;6.730;2022-08-21T12:06:35;5.35;;;1.75;;
51981;SDS011;37998;53.416;6.730;2022-08-21T12:09:08;4.88;;;1.98;;
51981;SDS011;37998;53.416;6.730;2022-08-21T12:11:59;4.40;;;1.80;;
51981;SDS011;37998;53.416;6.730;2022-08-21T12:14:47;6.60;;;2.35;;
51981;SDS011;37998;53.416;6.730;2022-08-21T12:17:21;4.57;;;1.35;;
51981;SDS011;37998;53.416;6.730;2022-08-21T12:20:02;4.38;;;1.80;;
51981;SDS011;37998;53.416;6.730;2022-08-21T12:23:01;5.32;;;1.65;;
51981;SDS011;37998;53.416;6.730;2022-08-21T12:28:23;3.28;;;1.90;;
51981;SDS011;37998;53.416;6.730;2022-08-21T12:30:50;3.13;;;1.40;;
51981;SDS011;37998;53.416;6.730;2022-08-21T12:33:20;7.15;;;1.60;;
51981;SDS011;37998;53.416;6.730;2022-08-21T12:35:53;6.28;;;1.90;;
51981;SDS011;37998;53.416;6.730;2022-08-21T12:38:46;5.10;;;1.52;;
51981;SDS011;37998;53.416;6.730;2022-08-21T12:41:36;3.53;;;1.88;;
51981;SDS011;37998;53.416;6.730;2022-08-21T12:44:16;3.97;;;1.70;;
51981;SDS011;37998;53.416;6.730;2022-08-21T12:46:51;6.60;;;2.00;;
51981;SDS011;37998;53.416;6.730;2022-08-21T12:49:18;5.22;;;1.92;;
51981;SDS011;37998;53.416;6.730;2022-08-21T12:54:45;3.78;;;1.52;;
51981;SDS011;37998;53.416;6.730;2022-08-21T12:57:19;4.70;;;1.95;;
51981;SDS011;37998;53.416;6.730;2022-08-21T12:59:51;6.28;;;1.90;;
51981;SDS011;37998;53.416;6.730;2022-08-21T13:02:33;8.95;;;2.28;;
51981;SDS011;37998;53.416;6.730;2022-08-21T13:05:04;3.85;;;1.55;;
51981;SDS011;37998;53.416;6.730;2022-08-21T13:07:32;5.68;;;1.98;;
51981;SDS011;37998;53.416;6.730;2022-08-21T13:10:05;7.35;;;2.13;;
51981;SDS011;37998;53.416;6.730;2022-08-21T13:12:39;6.95;;;1.88;;
51981;SDS011;37998;53.416;6.730;2022-08-21T13:15:06;5.72;;;2.00;;
51981;SDS011;37998;53.416;6.730;2022-08-21T13:17:34;7.90;;;2.00;;
51981;SDS011;37998;53.416;6.730;2022-08-21T13:20:05;7.80;;;2.63;;
51981;SDS011;37998;53.416;6.730;2022-08-21T13:22:40;3.20;;;1.65;;
51981;SDS011;37998;53.416;6.730;2022-08-21T13:25:10;9.73;;;2.20;;
51981;SDS011;37998;53.416;6.730;2022-08-21T13:27:43;9.13;;;2.17;;
51981;SDS011;37998;53.416;6.730;2022-08-21T13:30:24;9.02;;;2.65;;
51981;SDS011;37998;53.416;6.730;2022-08-21T13:32:51;8.63;;;2.88;;
51981;SDS011;37998;53.416;6.730;2022-08-21T13:37:51;8.15;;;2.38;;
51981;SDS011;37998;53.416;6.730;2022-08-21T13:40:20;7.25;;;2.40;;
51981;SDS011;37998;53.416;6.730;2022-08-21T13:42:50;10.48;;;2.28;;
51981;SDS011;37998;53.416;6.730;2022-08-21T13:45:20;10.07;;;2.78;;
51981;SDS011;37998;53.416;6.730;2022-08-21T13:47:49;13.13;;;3.85;;
51981;SDS011;37998;53.416;6.730;2022-08-21T13:50:16;6.57;;;2.10;;
51981;SDS011;37998;53.416;6.730;2022-08-21T13:52:49;9.15;;;2.47;;
51981;SDS011;37998;53.416;6.730;2022-08-21T13:55:23;7.20;;;2.33;;
51981;SDS011;37998;53.416;6.730;2022-08-21T13:57:58;10.00;;;2.30;;
51981;SDS011;37998;53.416;6.730;2022-08-21T14:00:26;5.07;;;1.70;;
51981;SDS011;37998;53.416;6.730;2022-08-21T14:02:54;6.78;;;2.17;;
51981;SDS011;37998;53.416;6.730;2022-08-21T14:05:29;11.30;;;2.55;;
51981;SDS011;37998;53.416;6.730;2022-08-21T14:10:44;9.60;;;2.72;;
51981;SDS011;37998;53.416;6.730;2022-08-21T14:16:10;7.22;;;2.53;;
51981;SDS011;37998;53.416;6.730;2022-08-21T14:18:52;7.03;;;2.10;;
51981;SDS011;37998;53.416;6.730;2022-08-21T14:21:36;9.43;;;2.40;;
51981;SDS011;37998;53.416;6.730;2022-08-21T14:24:25;7.30;;;1.90;;
51981;SDS011;37998;53.416;6.730;2022-08-21T14:27:10;7.82;;;2.20;;
51981;SDS011;37998;53.416;6.730;2022-08-21T14:29:40;9.93;;;2.42;;
51981;SDS011;37998;53.416;6.730;2022-08-21T14:32:14;8.15;;;2.65;;
51981;SDS011;37998;53.416;6.730;2022-08-21T14:34:44;9.20;;;2.28;;
51981;SDS011;37998;53.416;6.730;2022-08-21T14:37:10;9.05;;;2.10;;
51981;SDS011;37998;53.416;6.730;2022-08-21T14:39:36;5.30;;;1.85;;
51981;SDS011;37998;53.416;6.730;2022-08-21T14:42:01;6.97;;;2.20;;
51981;SDS011;37998;53.416;6.730;2022-08-21T14:44:27;12.93;;;2.60;;
51981;SDS011;37998;53.416;6.730;2022-08-21T14:46:53;11.00;;;2.72;;
51981;SDS011;37998;53.416;6.730;2022-08-21T14:49:20;10.30;;;2.40;;
51981;SDS011;37998;53.416;6.730;2022-08-21T14:51:46;6.78;;;2.47;;
51981;SDS011;37998;53.416;6.730;2022-08-21T14:54:12;9.13;;;2.30;;
51981;SDS011;37998;53.416;6.730;2022-08-21T14:56:37;5.95;;;2.17;;
51981;SDS011;37998;53.416;6.730;2022-08-21T14:59:07;9.50;;;2.70;;
51981;SDS011;37998;53.416;6.730;2022-08-21T15:01:34;11.10;;;2.30;;
51981;SDS011;37998;53.416;6.730;2022-08-21T15:04:01;9.40;;;2.13;;
51981;SDS011;37998;53.416;6.730;2022-08-21T15:06:27;7.45;;;2.53;;
51981;SDS011;37998;53.416;6.730;2022-08-21T15:08:52;5.85;;;2.15;;
51981;SDS011;37998;53.416;6.730;2022-08-21T15:11:19;8.82;;;2.03;;
51981;SDS011;37998;53.416;6.730;2022-08-21T15:13:46;9.13;;;2.30;;
51981;SDS011;37998;53.416;6.730;2022-08-21T15:16:14;7.07;;;3.03;;
51981;SDS011;37998;53.416;6.730;2022-08-21T15:18:40;6.20;;;2.10;;
51981;SDS011;37998;53.416;6.730;2022-08-21T15:21:06;8.88;;;2.28;;
51981;SDS011;37998;53.416;6.730;2022-08-21T15:23:33;8.25;;;2.38;;
51981;SDS011;37998;53.416;6.730;2022-08-21T15:25:59;10.90;;;2.55;;
51981;SDS011;37998;53.416;6.730;2022-08-21T15:28:25;7.00;;;2.33;;
51981;SDS011;37998;53.416;6.730;2022-08-21T15:30:51;10.02;;;2.67;;
51981;SDS011;37998;53.416;6.730;2022-08-21T15:33:18;6.97;;;2.08;;
51981;SDS011;37998;53.416;6.730;2022-08-21T15:35:44;6.00;;;2.00;;
51981;SDS011;37998;53.416;6.730;2022-08-21T15:38:11;9.48;;;2.33;;
51981;SDS011;37998;53.416;6.730;2022-08-21T15:40:38;9.18;;;2.47;;
51981;SDS011;37998;53.416;6.730;2022-08-21T15:43:05;7.18;;;2.40;;
51981;SDS011;37998;53.416;6.730;2022-08-21T15:45:34;10.40;;;2.55;;
51981;SDS011;37998;53.416;6.730;2022-08-21T15:48:00;10.52;;;2.40;;
51981;SDS011;37998;53.416;6.730;2022-08-21T15:50:26;7.75;;;2.47;;
51981;SDS011;37998;53.416;6.730;2022-08-21T15:52:53;8.05;;;2.38;;
51981;SDS011;37998;53.416;6.730;2022-08-21T15:55:19;7.72;;;2.88;;
51981;SDS011;37998;53.416;6.730;2022-08-21T15:57:46;10.07;;;2.92;;
51981;SDS011;37998;53.416;6.730;2022-08-21T16:00:17;12.55;;;2.22;;
51981;SDS011;37998;53.416;6.730;2022-08-21T16:02:47;10.55;;;2.30;;